Nearby METAR Reports

 

KIAG - Niagara Falls, New York, USA
Distance from station: W 12mi, 20km
Updated: 11/26/2020 5:53pm
Overcast
Overcast
 Wind from SW
Wind: SW 15 mph , 24 km/h
Temperature: 48°F , 9°C
Wind Chill: 42°F , 6°C
Dew Point: 46°F , 8°C
Humidity: 94%
Barometer: 1015.2 hPa
Clouds: Overcast
Visibility: 9 miles , 14 km
Cloud details: Overcast 800 ft
2020/11/26 22:53 KIAG 262253Z 23013KT 9SM OVC008 09/08 A2998 RMK AO2 CIG 007V011 SLP159 T00890078
KBUF - Buffalo/Cheektow, New York, USA
Distance from station: S 13mi, 21km
Updated: 11/26/2020 6:11pm
Light drizzle, Overcast
Light drizzle, Overcast
 Wind from SW
Wind: SW 14 mph , 22 km/h, Gust: 24 mph , 39 km/h
Temperature: 48°F , 9°C
Wind Chill: 42°F , 6°C
Dew Point: 45°F , 7°C
Humidity: 87%
Barometer: 1015.9 hPa
Summary: Light Drizzle
Clouds: Overcast
Visibility: 10 miles , 16 km
Cloud details: Mostly cloudy 800 ft
Mostly cloudy 1400 ft
Overcast 1900 ft
2020/11/26 23:11 KBUF 262311Z 23012G21KT 10SM -DZ BKN008 BKN014 OVC019 09/07 A3000 RMK AO2 DZB11 P0000 T00940072
 
KROC - Rochester, New York, USA
Distance from station: E 51mi, 82km
Updated: 11/26/2020 5:54pm
Light drizzle, Overcast
Light drizzle, Overcast
 Wind from W
Wind: W 14 mph , 22 km/h, Gust: 22 mph , 35 km/h
Temperature: 50°F , 10°C
Wind Chill: 45°F , 7°C
Dew Point: 48°F , 9°C
Humidity: 94%
Barometer: 1015.6 hPa
Summary: Light Drizzle
Clouds: Overcast
Visibility: 10 miles , 16 km
Cloud details: Overcast 1000 ft
2020/11/26 22:54 KROC 262254Z 26012G19KT 10SM -DZ OVC010 10/09 A2999 RMK AO2 DZB51 SLP159 P0000 T01000089
CYSN - St. Catharines A, Ontario, Canada
Distance from station: WNW 25mi, 40km
Updated: 11/26/2020 6:00pm
Light drizzle, Mist, Overcast
Light drizzle, Mist, Overcast
 Wind from SW
Wind: SW 14 mph , 22 km/h
Temperature: 50°F , 10°C
Wind Chill: 45°F , 7°C
Dew Point: 48°F , 9°C
Humidity: 94%
Barometer: 1015.2 hPa
Summary: Light drizzle, Mist
Clouds: Overcast
Visibility: 6 miles , 10 km
Cloud details: Overcast 1300 ft
2020/11/26 23:00 CYSN 262300Z 23012KT 6SM -DZ BR OVC013 10/09 A2998 RMK SF8 SLP155
 
KOLE - Olean, New York, USA
Distance from station: SSE 63mi, 102km
Updated: 11/26/2020 5:55pm
Heavy drizzle, Overcast
Heavy drizzle, Overcast
 Wind from WSW
Wind: WSW 3 mph , 6 km/h
Temperature: 45°F , 7°C
Dew Point: 45°F , 7°C
Humidity: 100%
Barometer: 1015.9 hPa
Summary: Heavy Drizzle
Clouds: Overcast
Visibility: 3 miles , 5 km
Cloud details: Overcast 300 ft
2020/11/26 22:55 KOLE 262255Z AUTO 25003KT 3SM +DZ OVC003 07/07 A3000 RMK AO2
KJHW - Jamestown, New York, USA
Distance from station: SSW 74mi, 119km
Updated: 11/26/2020 5:56pm
Overcast
Overcast
 Wind from W
Wind: W 8 mph , 13 km/h
Temperature: 45°F , 7°C
Wind Chill: 41°F , 5°C
Dew Point: 43°F , 6°C
Humidity: 93%
Barometer: 1016.9 hPa
Clouds: Overcast
Visibility: 10 miles , 16 km
Cloud details: Mostly cloudy 1000 ft
Overcast 1300 ft
2020/11/26 22:56 KJHW 262256Z AUTO 27007KT 10SM BKN010 OVC013 07/06 A3003 RMK AO2 RAE41 CIG 007V011 SLP180 P0000 T00670056
 
CWWZ - Port Weller (mar, Ontario, Canada
Distance from station: WNW 28mi, 45km
Updated: 11/26/2020 6:00pm

 Wind from W
Wind: W 10 mph , 17 km/h
Temperature: 46°F , 8°C
Wind Chill: 41°F , 5°C
Dew Point: 46°F , 8°C
Humidity: 100%
2020/11/26 23:00 CWWZ 262300Z AUTO 26009KT 08/08 RMK AO1 SOG 01 3026 SLP156 T00780077
CWPC - Port Colborne(Au, Ontario, Canada
Distance from station: WSW 33mi, 53km
Updated: 11/26/2020 6:00pm

 Wind from W
Wind: W 22 mph , 35 km/h
Temperature: 48°F , 9°C
Wind Chill: 41°F , 5°C
Dew Point: 45°F , 7°C
Humidity: 87%
2020/11/26 23:00 CWPC 262300Z AUTO 26019KT 09/07 RMK AO1 PK WND 26025/2224 SLP166 T00900073 51025
 
CXVN - Vineland (au8), Ontario, Canada
Distance from station: W 36mi, 58km
Updated: 11/26/2020 6:00pm

 Wind from WSW
Wind: WSW 13 mph , 20 km/h
Temperature: 50°F , 10°C
Wind Chill: 45°F , 7°C
Dew Point: 46°F , 8°C
Humidity: 88%
2020/11/26 23:00 CXVN 262300Z AUTO 25011KT 10/08 RMK AO1 SLP158 T01020075 53028
CYTZ - Toronto Il Vor, Ontario, Canada
Distance from station: NW 50mi, 81km
Updated: 11/26/2020 6:00pm
Overcast
Overcast
 Wind from W
Wind: W 13 mph , 20 km/h
Temperature: 48°F , 9°C
Wind Chill: 43°F , 6°C
Dew Point: 45°F , 7°C
Humidity: 87%
Barometer: 1014.6 hPa
Clouds: Overcast
Visibility: 9 miles , 14 km
Cloud details: Mostly cloudy 1700 ft
Overcast 2200 ft
2020/11/26 23:00 CYTZ 262300Z AUTO 27011KT 9SM BKN017 OVC022 09/07 A2996 RMK SLP153
 
CXTO - Toronto City, Ontario, Canada
Distance from station: NW 52mi, 84km
Updated: 11/26/2020 6:00pm

 
Temperature: 48°F , 9°C
Dew Point: 43°F , 6°C
Humidity: 82%
2020/11/26 23:00 CXTO 262300Z AUTO 09/06 RMK AO1 SLP156 T00920063 53030
KDKK - Dunkirk, New York, USA
Distance from station: SW 52mi, 84km
Updated: 11/26/2020 6:03pm
Overcast
Overcast
 Wind from SW
Wind: SW 13 mph , 20 km/h
Temperature: 48°F , 9°C
Wind Chill: 43°F , 6°C
Dew Point: 46°F , 8°C
Humidity: 94%
Barometer: 1016.9 hPa
Clouds: Overcast
Visibility: 10 miles , 16 km
Cloud details: Few Clouds 900 ft
Mostly cloudy 1500 ft
Overcast 2100 ft
2020/11/26 23:03 KDKK 262303Z AUTO 23011KT 10SM FEW009 BKN015 OVC021 09/08 A3003 RMK AO2 T00940078
 
CYOO - Oshawa, Ontario, Canada
Distance from station: N 56mi, 90km
Updated: 11/26/2020 6:00pm
Overcast
Overcast
 Wind from WSW
Wind: WSW 10 mph , 17 km/h
Temperature: 50°F , 10°C
Wind Chill: 46°F , 8°C
Dew Point: 48°F , 9°C
Humidity: 94%
Barometer: 1013.9 hPa
Clouds: Overcast
Visibility: 9 miles , 14 km
Cloud details: Overcast 2100 ft
2020/11/26 23:00 CYOO 262300Z AUTO 25009KT 9SM OVC021 10/09 A2994 RMK SLP143
CWWB - Burlington Piers, Ontario, Canada
Distance from station: WNW 56mi, 91km
Updated: 11/26/2020 6:00pm

 Wind from WSW
Wind: WSW 9 mph , 15 km/h
Temperature: 48°F , 9°C
Wind Chill: 44°F , 7°C
Dew Point: 43°F , 6°C
Humidity: 82%
2020/11/26 23:00 CWWB 262300Z AUTO 25008KT 09/06 RMK AO1 SLP157 T00940064 52030
 
CYYZ - Toronto/Pearson, Ontario, Canada
Distance from station: NW 60mi, 96km
Updated: 11/26/2020 6:00pm
Overcast
Overcast
 Wind from W
Wind: W 15 mph , 24 km/h
Temperature: 46°F , 8°C
Wind Chill: 40°F , 4°C
Dew Point: 45°F , 7°C
Humidity: 93%
Barometer: 1014.9 hPa
Clouds: Overcast
Visibility: 12 miles , 19 km
Cloud details: Mostly cloudy 900 ft
Overcast 1400 ft
2020/11/26 23:00 CYYZ 262300Z 26013KT 12SM BKN009 OVC014 08/07 A2997 RMK SC6SC2 SLP154
CYKZ - Toronto Buttonvi, Ontario, Canada
Distance from station: NW 62mi, 99km
Updated: 01/03/2019 4:00am
NOT Current
Partly cloudy
Partly cloudy
 Wind from WSW
Wind: WSW 5 mph , 7 km/h
Temperature: 27°F , -3°C
Wind Chill: 21°F , -6°C
Dew Point: 23°F , -5°C
Humidity: 86%
Barometer: 1010.8 hPa
Clouds: Partly cloudy
Visibility: 15 miles , 24 km
Cloud details: Partly cloudy 4000 ft
2019/01/03 09:00 CYKZ 030900Z 25004KT 15SM SCT040 M03/M05 A2985 RMK SC3 LAST STFD OBS FAREWELL SLP118
 
CXHM - Hamilton Rbg Cs, Ontario, Canada
Distance from station: W 62mi, 100km
Updated: 11/26/2020 6:00pm

 Wind from W
Wind: W 8 mph , 13 km/h
Temperature: 48°F , 9°C
Wind Chill: 44°F , 7°C
Dew Point: 43°F , 6°C
Humidity: 82%
2020/11/26 23:00 CXHM 262300Z AUTO 27007KT 09/06 RMK AO1 SLP158 T00900064 52028
KDSV - Dansville, New York, USA
Distance from station: SE 62mi, 100km
Updated: 11/26/2020 6:01pm
Overcast
Overcast
 Wind from WNW
Wind: WNW 3 mph , 6 km/h
Temperature: 54°F , 12°C
Dew Point: 46°F , 8°C
Humidity: 77%
Barometer: 1015.9 hPa
Clouds: Overcast
Visibility: 10 miles , 16 km
Cloud details: Mostly cloudy 2800 ft
Overcast 4800 ft
2020/11/26 23:01 KDSV 262301Z AUTO 30003KT 10SM BKN028 OVC048 12/08 A3000 RMK AO2 T01220078
 
CYHM - Hamilton Airport, Ontario, Canada
Distance from station: W 63mi, 101km
Updated: 11/26/2020 6:00pm
Overcast
Overcast
 Wind from W
Wind: W 12 mph , 19 km/h, Gust: 18 mph , 30 km/h
Temperature: 46°F , 8°C
Wind Chill: 40°F , 4°C
Dew Point: 43°F , 6°C
Humidity: 87%
Barometer: 1015.6 hPa
Clouds: Overcast
Visibility: 10 miles , 16 km
Cloud details: Partly cloudy 1200 ft
Overcast 2000 ft
2020/11/26 23:00 CYHM 262300Z 26010G16KT 10SM SCT012 OVC020 08/06 A2999 RMK SF4SC4 SLP162
CWNC - Cobourg (mars), Ontario, Canada
Distance from station: NNE 63mi, 102km
Updated: 11/26/2020 6:00pm

 Wind from W
Wind: W 8 mph , 13 km/h
Temperature: 45°F , 7°C
Wind Chill: 41°F , 5°C
Dew Point: 45°F , 7°C
Humidity: 100%
2020/11/26 23:00 CWNC 262300Z AUTO 27007KT 07/07 RMK AO1 SOG 01 1028 SLP143 T00700066